sensor_id;sensor_type;location;lat;lon;timestamp;P1;durP1;ratioP1;P2;durP2;ratioP2
56255;SDS011;57229;51.432;-2.598;2023-03-01T00:01:05;3.70;;;3.50;;
56255;SDS011;57229;51.432;-2.598;2023-03-01T00:03:32;3.60;;;3.40;;
56255;SDS011;57229;51.432;-2.598;2023-03-01T00:05:59;3.75;;;3.55;;
56255;SDS011;57229;51.432;-2.598;2023-03-01T00:08:25;4.03;;;3.72;;
56255;SDS011;57229;51.432;-2.598;2023-03-01T00:11:13;3.88;;;3.67;;
56255;SDS011;57229;51.432;-2.598;2023-03-01T00:13:39;3.85;;;3.55;;
56255;SDS011;57229;51.432;-2.598;2023-03-01T00:16:07;3.40;;;3.10;;
56255;SDS011;57229;51.432;-2.598;2023-03-01T00:18:35;4.20;;;3.80;;
56255;SDS011;57229;51.432;-2.598;2023-03-01T00:21:01;3.83;;;3.60;;
56255;SDS011;57229;51.432;-2.598;2023-03-01T00:23:27;4.18;;;3.60;;
56255;SDS011;57229;51.432;-2.598;2023-03-01T00:25:53;3.58;;;3.38;;
56255;SDS011;57229;51.432;-2.598;2023-03-01T00:28:19;3.58;;;3.20;;
56255;SDS011;57229;51.432;-2.598;2023-03-01T00:30:46;3.42;;;3.13;;
56255;SDS011;57229;51.432;-2.598;2023-03-01T00:33:12;3.33;;;3.13;;
56255;SDS011;57229;51.432;-2.598;2023-03-01T00:35:38;3.50;;;3.30;;
56255;SDS011;57229;51.432;-2.598;2023-03-01T00:38:04;3.55;;;3.20;;
56255;SDS011;57229;51.432;-2.598;2023-03-01T00:40:31;3.30;;;3.10;;
56255;SDS011;57229;51.432;-2.598;2023-03-01T00:42:58;3.40;;;3.20;;
56255;SDS011;57229;51.432;-2.598;2023-03-01T00:45:24;3.60;;;3.40;;
56255;SDS011;57229;51.432;-2.598;2023-03-01T00:47:50;3.40;;;3.20;;
56255;SDS011;57229;51.432;-2.598;2023-03-01T00:50:16;3.70;;;3.40;;
56255;SDS011;57229;51.432;-2.598;2023-03-01T00:52:43;3.60;;;3.30;;
56255;SDS011;57229;51.432;-2.598;2023-03-01T00:55:09;3.50;;;3.20;;
56255;SDS011;57229;51.432;-2.598;2023-03-01T00:57:35;3.28;;;3.08;;
56255;SDS011;57229;51.432;-2.598;2023-03-01T01:00:01;3.40;;;3.20;;
56255;SDS011;57229;51.432;-2.598;2023-03-01T01:02:29;3.58;;;3.30;;
56255;SDS011;57229;51.432;-2.598;2023-03-01T01:04:54;3.50;;;3.20;;
56255;SDS011;57229;51.432;-2.598;2023-03-01T01:07:20;3.45;;;3.25;;
56255;SDS011;57229;51.432;-2.598;2023-03-01T01:09:46;3.40;;;3.20;;
56255;SDS011;57229;51.432;-2.598;2023-03-01T01:12:12;3.40;;;3.20;;
56255;SDS011;57229;51.432;-2.598;2023-03-01T01:14:37;3.40;;;3.20;;
56255;SDS011;57229;51.432;-2.598;2023-03-01T01:17:03;3.38;;;3.17;;
56255;SDS011;57229;51.432;-2.598;2023-03-01T01:19:29;3.35;;;3.15;;
56255;SDS011;57229;51.432;-2.598;2023-03-01T01:21:55;3.50;;;3.20;;
56255;SDS011;57229;51.432;-2.598;2023-03-01T01:24:20;3.35;;;3.15;;
56255;SDS011;57229;51.432;-2.598;2023-03-01T01:26:46;3.58;;;3.28;;
56255;SDS011;57229;51.432;-2.598;2023-03-01T01:29:12;3.40;;;3.10;;
56255;SDS011;57229;51.432;-2.598;2023-03-01T01:31:38;3.30;;;3.10;;
56255;SDS011;57229;51.432;-2.598;2023-03-01T01:34:06;3.33;;;3.13;;
56255;SDS011;57229;51.432;-2.598;2023-03-01T01:36:33;3.38;;;3.10;;
56255;SDS011;57229;51.432;-2.598;2023-03-01T01:38:59;3.20;;;3.00;;
56255;SDS011;57229;51.432;-2.598;2023-03-01T01:41:26;3.10;;;2.92;;
56255;SDS011;57229;51.432;-2.598;2023-03-01T01:44:10;3.40;;;3.10;;
56255;SDS011;57229;51.432;-2.598;2023-03-01T01:46:46;3.50;;;3.20;;
56255;SDS011;57229;51.432;-2.598;2023-03-01T01:51:41;3.40;;;3.10;;
56255;SDS011;57229;51.432;-2.598;2023-03-01T01:54:19;3.80;;;3.50;;
56255;SDS011;57229;51.432;-2.598;2023-03-01T01:56:55;3.28;;;3.10;;
56255;SDS011;57229;51.432;-2.598;2023-03-01T01:59:26;3.50;;;3.30;;
56255;SDS011;57229;51.432;-2.598;2023-03-01T02:01:53;4.57;;;3.40;;
56255;SDS011;57229;51.432;-2.598;2023-03-01T02:04:20;3.50;;;3.30;;
56255;SDS011;57229;51.432;-2.598;2023-03-01T02:06:51;3.55;;;3.25;;
56255;SDS011;57229;51.432;-2.598;2023-03-01T02:09:23;3.85;;;3.55;;
56255;SDS011;57229;51.432;-2.598;2023-03-01T02:11:50;3.72;;;3.20;;
56255;SDS011;57229;51.432;-2.598;2023-03-01T02:14:17;3.65;;;3.45;;
56255;SDS011;57229;51.432;-2.598;2023-03-01T02:16:43;3.45;;;3.17;;
56255;SDS011;57229;51.432;-2.598;2023-03-01T02:19:10;4.00;;;3.60;;
56255;SDS011;57229;51.432;-2.598;2023-03-01T02:21:59;3.65;;;3.40;;
56255;SDS011;57229;51.432;-2.598;2023-03-01T02:24:40;3.75;;;3.45;;
56255;SDS011;57229;51.432;-2.598;2023-03-01T02:27:38;4.00;;;3.60;;
56255;SDS011;57229;51.432;-2.598;2023-03-01T02:30:29;3.90;;;3.60;;
56255;SDS011;57229;51.432;-2.598;2023-03-01T02:32:56;3.63;;;3.40;;
56255;SDS011;57229;51.432;-2.598;2023-03-01T02:35:28;3.50;;;3.30;;
56255;SDS011;57229;51.432;-2.598;2023-03-01T02:38:00;3.75;;;3.50;;
56255;SDS011;57229;51.432;-2.598;2023-03-01T02:40:29;6.22;;;3.60;;
56255;SDS011;57229;51.432;-2.598;2023-03-01T02:42:56;3.88;;;3.58;;
56255;SDS011;57229;51.432;-2.598;2023-03-01T02:45:23;3.80;;;3.50;;
56255;SDS011;57229;51.432;-2.598;2023-03-01T02:47:53;4.45;;;3.80;;
56255;SDS011;57229;51.432;-2.598;2023-03-01T02:50:25;4.10;;;3.65;;
56255;SDS011;57229;51.432;-2.598;2023-03-01T02:55:26;4.68;;;3.40;;
56255;SDS011;57229;51.432;-2.598;2023-03-01T02:57:52;4.93;;;3.70;;
56255;SDS011;57229;51.432;-2.598;2023-03-01T03:00:24;4.18;;;3.70;;
56255;SDS011;57229;51.432;-2.598;2023-03-01T03:02:53;4.75;;;3.95;;
56255;SDS011;57229;51.432;-2.598;2023-03-01T03:05:29;4.00;;;3.40;;
56255;SDS011;57229;51.432;-2.598;2023-03-01T03:07:55;5.10;;;3.90;;
56255;SDS011;57229;51.432;-2.598;2023-03-01T03:10:27;4.13;;;3.60;;
56255;SDS011;57229;51.432;-2.598;2023-03-01T03:12:59;3.88;;;3.55;;
56255;SDS011;57229;51.432;-2.598;2023-03-01T03:15:27;3.97;;;3.67;;
56255;SDS011;57229;51.432;-2.598;2023-03-01T03:17:54;6.65;;;3.88;;
56255;SDS011;57229;51.432;-2.598;2023-03-01T03:20:21;4.95;;;3.67;;
56255;SDS011;57229;51.432;-2.598;2023-03-01T03:22:50;4.30;;;3.90;;
56255;SDS011;57229;51.432;-2.598;2023-03-01T03:25:17;5.15;;;3.88;;
56255;SDS011;57229;51.432;-2.598;2023-03-01T03:27:43;4.30;;;3.90;;
56255;SDS011;57229;51.432;-2.598;2023-03-01T03:30:13;4.53;;;4.00;;
56255;SDS011;57229;51.432;-2.598;2023-03-01T03:32:41;4.18;;;3.78;;
56255;SDS011;57229;51.432;-2.598;2023-03-01T03:37:55;6.55;;;4.00;;
56255;SDS011;57229;51.432;-2.598;2023-03-01T03:40:39;6.80;;;3.90;;
56255;SDS011;57229;51.432;-2.598;2023-03-01T03:43:09;4.10;;;3.70;;
56255;SDS011;57229;51.432;-2.598;2023-03-01T03:45:37;4.38;;;3.90;;
56255;SDS011;57229;51.432;-2.598;2023-03-01T03:48:03;4.20;;;3.90;;
56255;SDS011;57229;51.432;-2.598;2023-03-01T03:50:31;4.97;;;4.18;;
56255;SDS011;57229;51.432;-2.598;2023-03-01T03:53:00;4.20;;;3.67;;
56255;SDS011;57229;51.432;-2.598;2023-03-01T03:55:26;6.65;;;4.03;;
56255;SDS011;57229;51.432;-2.598;2023-03-01T03:57:56;4.20;;;3.90;;
56255;SDS011;57229;51.432;-2.598;2023-03-01T04:00:27;4.47;;;3.55;;
56255;SDS011;57229;51.432;-2.598;2023-03-01T04:02:53;4.25;;;3.90;;
56255;SDS011;57229;51.432;-2.598;2023-03-01T04:05:21;3.97;;;3.67;;
56255;SDS011;57229;51.432;-2.598;2023-03-01T04:07:47;6.97;;;3.83;;
56255;SDS011;57229;51.432;-2.598;2023-03-01T04:10:17;5.53;;;3.90;;
56255;SDS011;57229;51.432;-2.598;2023-03-01T04:12:43;3.90;;;3.60;;
56255;SDS011;57229;51.432;-2.598;2023-03-01T04:15:10;3.72;;;3.40;;
56255;SDS011;57229;51.432;-2.598;2023-03-01T04:17:43;4.13;;;3.80;;
56255;SDS011;57229;51.432;-2.598;2023-03-01T04:20:11;3.78;;;3.47;;
56255;SDS011;57229;51.432;-2.598;2023-03-01T04:22:50;5.53;;;3.47;;
56255;SDS011;57229;51.432;-2.598;2023-03-01T04:25:17;4.20;;;3.80;;
56255;SDS011;57229;51.432;-2.598;2023-03-01T04:27:43;4.70;;;3.78;;
56255;SDS011;57229;51.432;-2.598;2023-03-01T04:30:09;3.58;;;3.38;;
56255;SDS011;57229;51.432;-2.598;2023-03-01T04:32:35;3.85;;;3.55;;
56255;SDS011;57229;51.432;-2.598;2023-03-01T04:35:01;3.88;;;3.50;;
56255;SDS011;57229;51.432;-2.598;2023-03-01T04:37:27;3.55;;;3.35;;
56255;SDS011;57229;51.432;-2.598;2023-03-01T04:39:52;3.78;;;3.30;;
56255;SDS011;57229;51.432;-2.598;2023-03-01T04:42:18;3.53;;;3.33;;
56255;SDS011;57229;51.432;-2.598;2023-03-01T04:44:44;3.63;;;3.40;;
56255;SDS011;57229;51.432;-2.598;2023-03-01T04:47:10;3.65;;;3.30;;
56255;SDS011;57229;51.432;-2.598;2023-03-01T04:49:36;3.60;;;3.40;;
56255;SDS011;57229;51.432;-2.598;2023-03-01T04:52:02;3.58;;;3.33;;
56255;SDS011;57229;51.432;-2.598;2023-03-01T04:54:29;3.90;;;3.30;;
56255;SDS011;57229;51.432;-2.598;2023-03-01T04:56:57;3.65;;;3.45;;
56255;SDS011;57229;51.432;-2.598;2023-03-01T04:59:23;4.15;;;3.85;;
56255;SDS011;57229;51.432;-2.598;2023-03-01T05:01:50;4.38;;;3.45;;
56255;SDS011;57229;51.432;-2.598;2023-03-01T05:04:16;4.72;;;3.55;;
56255;SDS011;57229;51.432;-2.598;2023-03-01T05:06:42;3.80;;;3.45;;
56255;SDS011;57229;51.432;-2.598;2023-03-01T05:09:08;4.10;;;3.80;;
56255;SDS011;57229;51.432;-2.598;2023-03-01T05:11:33;4.25;;;3.65;;
56255;SDS011;57229;51.432;-2.598;2023-03-01T05:14:04;3.67;;;3.47;;
56255;SDS011;57229;51.432;-2.598;2023-03-01T05:16:31;4.03;;;3.67;;
56255;SDS011;57229;51.432;-2.598;2023-03-01T05:18:57;3.92;;;3.63;;
56255;SDS011;57229;51.432;-2.598;2023-03-01T05:21:24;3.85;;;3.65;;
56255;SDS011;57229;51.432;-2.598;2023-03-01T05:23:50;3.80;;;3.60;;
56255;SDS011;57229;51.432;-2.598;2023-03-01T05:26:17;3.90;;;3.60;;
56255;SDS011;57229;51.432;-2.598;2023-03-01T05:28:44;3.83;;;3.53;;
56255;SDS011;57229;51.432;-2.598;2023-03-01T05:31:10;5.15;;;3.90;;
56255;SDS011;57229;51.432;-2.598;2023-03-01T05:33:36;4.47;;;4.03;;
56255;SDS011;57229;51.432;-2.598;2023-03-01T05:36:03;4.30;;;4.00;;
56255;SDS011;57229;51.432;-2.598;2023-03-01T05:38:29;4.65;;;4.22;;
56255;SDS011;57229;51.432;-2.598;2023-03-01T05:40:55;4.55;;;4.25;;
56255;SDS011;57229;51.432;-2.598;2023-03-01T05:43:21;4.65;;;4.30;;
56255;SDS011;57229;51.432;-2.598;2023-03-01T05:45:46;4.68;;;4.28;;
56255;SDS011;57229;51.432;-2.598;2023-03-01T05:48:12;4.88;;;4.47;;
56255;SDS011;57229;51.432;-2.598;2023-03-01T05:50:42;6.40;;;4.45;;
56255;SDS011;57229;51.432;-2.598;2023-03-01T05:53:13;5.68;;;4.55;;
56255;SDS011;57229;51.432;-2.598;2023-03-01T05:55:44;4.50;;;4.20;;
56255;SDS011;57229;51.432;-2.598;2023-03-01T05:58:21;5.72;;;4.70;;
56255;SDS011;57229;51.432;-2.598;2023-03-01T06:00:47;6.63;;;4.70;;
56255;SDS011;57229;51.432;-2.598;2023-03-01T06:03:14;5.43;;;4.93;;
56255;SDS011;57229;51.432;-2.598;2023-03-01T06:05:41;6.03;;;5.20;;
56255;SDS011;57229;51.432;-2.598;2023-03-01T06:08:09;5.70;;;5.18;;
56255;SDS011;57229;51.432;-2.598;2023-03-01T06:10:36;5.22;;;4.82;;
56255;SDS011;57229;51.432;-2.598;2023-03-01T06:13:02;7.65;;;5.15;;
56255;SDS011;57229;51.432;-2.598;2023-03-01T06:15:28;5.45;;;4.95;;
56255;SDS011;57229;51.432;-2.598;2023-03-01T06:17:54;5.47;;;4.97;;
56255;SDS011;57229;51.432;-2.598;2023-03-01T06:20:22;7.47;;;5.00;;
56255;SDS011;57229;51.432;-2.598;2023-03-01T06:22:49;5.55;;;5.00;;
56255;SDS011;57229;51.432;-2.598;2023-03-01T06:25:20;5.57;;;5.07;;
56255;SDS011;57229;51.432;-2.598;2023-03-01T06:27:47;6.47;;;4.90;;
56255;SDS011;57229;51.432;-2.598;2023-03-01T06:30:14;5.43;;;4.93;;
56255;SDS011;57229;51.432;-2.598;2023-03-01T06:32:41;6.82;;;5.28;;
56255;SDS011;57229;51.432;-2.598;2023-03-01T06:35:08;5.03;;;4.57;;
56255;SDS011;57229;51.432;-2.598;2023-03-01T06:37:35;6.40;;;4.80;;
56255;SDS011;57229;51.432;-2.598;2023-03-01T06:40:01;5.28;;;4.78;;
56255;SDS011;57229;51.432;-2.598;2023-03-01T06:42:33;5.35;;;4.85;;
56255;SDS011;57229;51.432;-2.598;2023-03-01T06:45:03;5.47;;;4.97;;
56255;SDS011;57229;51.432;-2.598;2023-03-01T06:47:31;5.82;;;5.25;;
56255;SDS011;57229;51.432;-2.598;2023-03-01T06:49:58;6.68;;;5.10;;
56255;SDS011;57229;51.432;-2.598;2023-03-01T06:52:24;9.07;;;5.45;;
56255;SDS011;57229;51.432;-2.598;2023-03-01T06:54:50;6.25;;;5.65;;
56255;SDS011;57229;51.432;-2.598;2023-03-01T06:57:16;6.30;;;5.70;;
56255;SDS011;57229;51.432;-2.598;2023-03-01T06:59:42;8.48;;;5.63;;
56255;SDS011;57229;51.432;-2.598;2023-03-01T07:02:09;6.60;;;5.90;;
56255;SDS011;57229;51.432;-2.598;2023-03-01T07:04:36;8.73;;;5.80;;
56255;SDS011;57229;51.432;-2.598;2023-03-01T07:07:02;6.60;;;5.97;;
56255;SDS011;57229;51.432;-2.598;2023-03-01T07:09:28;6.47;;;5.55;;
56255;SDS011;57229;51.432;-2.598;2023-03-01T07:11:53;8.48;;;5.72;;
56255;SDS011;57229;51.432;-2.598;2023-03-01T07:14:19;7.05;;;5.78;;
56255;SDS011;57229;51.432;-2.598;2023-03-01T07:16:45;6.72;;;5.60;;
56255;SDS011;57229;51.432;-2.598;2023-03-01T07:19:11;8.60;;;5.40;;
56255;SDS011;57229;51.432;-2.598;2023-03-01T07:21:36;6.40;;;5.63;;
56255;SDS011;57229;51.432;-2.598;2023-03-01T07:24:05;8.50;;;5.68;;
56255;SDS011;57229;51.432;-2.598;2023-03-01T07:26:32;6.20;;;5.60;;
56255;SDS011;57229;51.432;-2.598;2023-03-01T07:29:01;7.40;;;6.05;;
56255;SDS011;57229;51.432;-2.598;2023-03-01T07:31:28;8.32;;;6.18;;
56255;SDS011;57229;51.432;-2.598;2023-03-01T07:33:54;7.80;;;5.32;;
56255;SDS011;57229;51.432;-2.598;2023-03-01T07:36:20;6.80;;;5.55;;
56255;SDS011;57229;51.432;-2.598;2023-03-01T07:38:46;5.55;;;4.85;;
56255;SDS011;57229;51.432;-2.598;2023-03-01T07:41:11;6.28;;;5.32;;
56255;SDS011;57229;51.432;-2.598;2023-03-01T07:43:37;5.63;;;5.03;;
56255;SDS011;57229;51.432;-2.598;2023-03-01T07:46:03;5.97;;;5.32;;
56255;SDS011;57229;51.432;-2.598;2023-03-01T07:48:29;5.63;;;4.85;;
56255;SDS011;57229;51.432;-2.598;2023-03-01T07:51:03;6.32;;;4.80;;
56255;SDS011;57229;51.432;-2.598;2023-03-01T07:53:30;5.80;;;4.30;;
56255;SDS011;57229;51.432;-2.598;2023-03-01T07:56:00;6.60;;;4.80;;
56255;SDS011;57229;51.432;-2.598;2023-03-01T07:58:30;5.25;;;4.75;;
56255;SDS011;57229;51.432;-2.598;2023-03-01T08:00:56;7.10;;;4.68;;
56255;SDS011;57229;51.432;-2.598;2023-03-01T08:03:25;5.22;;;4.75;;
56255;SDS011;57229;51.432;-2.598;2023-03-01T08:05:51;5.07;;;4.68;;
56255;SDS011;57229;51.432;-2.598;2023-03-01T08:08:16;5.95;;;4.40;;
56255;SDS011;57229;51.432;-2.598;2023-03-01T08:10:42;7.05;;;4.25;;
56255;SDS011;57229;51.432;-2.598;2023-03-01T08:13:08;6.05;;;4.18;;
56255;SDS011;57229;51.432;-2.598;2023-03-01T08:15:33;5.13;;;4.10;;
56255;SDS011;57229;51.432;-2.598;2023-03-01T08:17:59;6.72;;;4.30;;
56255;SDS011;57229;51.432;-2.598;2023-03-01T08:20:25;4.45;;;4.05;;
56255;SDS011;57229;51.432;-2.598;2023-03-01T08:22:51;6.55;;;4.13;;
56255;SDS011;57229;51.432;-2.598;2023-03-01T08:25:17;5.28;;;4.40;;
56255;SDS011;57229;51.432;-2.598;2023-03-01T08:27:42;7.65;;;4.15;;
56255;SDS011;57229;51.432;-2.598;2023-03-01T08:30:08;4.20;;;3.80;;
56255;SDS011;57229;51.432;-2.598;2023-03-01T08:32:35;4.80;;;4.05;;
56255;SDS011;57229;51.432;-2.598;2023-03-01T08:35:04;4.43;;;4.03;;
56255;SDS011;57229;51.432;-2.598;2023-03-01T08:37:30;6.22;;;4.30;;
56255;SDS011;57229;51.432;-2.598;2023-03-01T08:39:57;7.03;;;3.95;;
56255;SDS011;57229;51.432;-2.598;2023-03-01T08:42:24;4.13;;;3.80;;
56255;SDS011;57229;51.432;-2.598;2023-03-01T08:44:49;6.15;;;3.90;;
56255;SDS011;57229;51.432;-2.598;2023-03-01T08:47:16;4.60;;;3.85;;
56255;SDS011;57229;51.432;-2.598;2023-03-01T08:49:42;4.65;;;3.67;;
56255;SDS011;57229;51.432;-2.598;2023-03-01T08:52:08;4.43;;;3.58;;
56255;SDS011;57229;51.432;-2.598;2023-03-01T08:54:33;3.85;;;3.40;;
56255;SDS011;57229;51.432;-2.598;2023-03-01T08:57:01;3.75;;;3.38;;
56255;SDS011;57229;51.432;-2.598;2023-03-01T08:59:27;4.68;;;3.40;;
56255;SDS011;57229;51.432;-2.598;2023-03-01T09:01:54;3.55;;;3.35;;
56255;SDS011;57229;51.432;-2.598;2023-03-01T09:04:20;3.50;;;3.20;;
56255;SDS011;57229;51.432;-2.598;2023-03-01T09:06:46;4.47;;;3.50;;
56255;SDS011;57229;51.432;-2.598;2023-03-01T09:09:16;4.97;;;3.83;;
56255;SDS011;57229;51.432;-2.598;2023-03-01T09:11:43;4.32;;;3.90;;
56255;SDS011;57229;51.432;-2.598;2023-03-01T09:14:11;5.90;;;3.80;;
56255;SDS011;57229;51.432;-2.598;2023-03-01T09:16:38;5.85;;;4.20;;
56255;SDS011;57229;51.432;-2.598;2023-03-01T09:19:04;4.88;;;4.20;;
56255;SDS011;57229;51.432;-2.598;2023-03-01T09:21:30;5.85;;;4.03;;
56255;SDS011;57229;51.432;-2.598;2023-03-01T09:23:56;5.78;;;4.28;;
56255;SDS011;57229;51.432;-2.598;2023-03-01T09:26:23;6.32;;;4.30;;
56255;SDS011;57229;51.432;-2.598;2023-03-01T09:28:50;5.88;;;4.63;;
56255;SDS011;57229;51.432;-2.598;2023-03-01T09:31:19;5.85;;;5.10;;
56255;SDS011;57229;51.432;-2.598;2023-03-01T09:33:47;8.30;;;4.80;;
56255;SDS011;57229;51.432;-2.598;2023-03-01T09:36:15;10.27;;;4.60;;
56255;SDS011;57229;51.432;-2.598;2023-03-01T09:38:44;9.88;;;4.68;;
56255;SDS011;57229;51.432;-2.598;2023-03-01T09:41:11;8.18;;;4.55;;
56255;SDS011;57229;51.432;-2.598;2023-03-01T09:44:04;14.55;;;4.88;;
56255;SDS011;57229;51.432;-2.598;2023-03-01T09:46:37;8.07;;;4.50;;
56255;SDS011;57229;51.432;-2.598;2023-03-01T09:49:17;52.45;;;8.52;;
56255;SDS011;57229;51.432;-2.598;2023-03-01T09:51:57;10.25;;;4.82;;
56255;SDS011;57229;51.432;-2.598;2023-03-01T09:54:23;10.70;;;4.35;;
56255;SDS011;57229;51.432;-2.598;2023-03-01T09:56:56;6.50;;;4.72;;
56255;SDS011;57229;51.432;-2.598;2023-03-01T10:04:50;10.07;;;4.68;;
56255;SDS011;57229;51.432;-2.598;2023-03-01T10:13:00;7.97;;;4.45;;
56255;SDS011;57229;51.432;-2.598;2023-03-01T10:15:37;7.68;;;4.82;;
56255;SDS011;57229;51.432;-2.598;2023-03-01T10:18:16;6.97;;;4.30;;
56255;SDS011;57229;51.432;-2.598;2023-03-01T10:23:44;4.80;;;4.40;;
56255;SDS011;57229;51.432;-2.598;2023-03-01T10:31:12;4.70;;;4.00;;
56255;SDS011;57229;51.432;-2.598;2023-03-01T10:33:43;3.88;;;3.58;;
56255;SDS011;57229;51.432;-2.598;2023-03-01T10:36:08;7.18;;;3.95;;
56255;SDS011;57229;51.432;-2.598;2023-03-01T10:38:48;5.32;;;3.90;;
56255;SDS011;57229;51.432;-2.598;2023-03-01T10:41:19;3.90;;;3.60;;
56255;SDS011;57229;51.432;-2.598;2023-03-01T10:46:35;4.50;;;3.60;;
56255;SDS011;57229;51.432;-2.598;2023-03-01T10:49:21;4.32;;;3.80;;
56255;SDS011;57229;51.432;-2.598;2023-03-01T10:51:49;5.22;;;3.90;;
56255;SDS011;57229;51.432;-2.598;2023-03-01T10:56:45;4.57;;;3.83;;
56255;SDS011;57229;51.432;-2.598;2023-03-01T10:59:35;4.72;;;3.80;;
56255;SDS011;57229;51.432;-2.598;2023-03-01T11:02:04;4.30;;;3.90;;
56255;SDS011;57229;51.432;-2.598;2023-03-01T11:05:02;4.15;;;3.60;;
56255;SDS011;57229;51.432;-2.598;2023-03-01T11:12:53;4.88;;;3.58;;
56255;SDS011;57229;51.432;-2.598;2023-03-01T11:15:30;4.15;;;3.85;;
56255;SDS011;57229;51.432;-2.598;2023-03-01T11:17:56;4.30;;;3.70;;
56255;SDS011;57229;51.432;-2.598;2023-03-01T11:20:34;4.90;;;3.65;;
56255;SDS011;57229;51.432;-2.598;2023-03-01T11:23:05;4.30;;;3.90;;
56255;SDS011;57229;51.432;-2.598;2023-03-01T11:25:36;4.15;;;3.65;;
56255;SDS011;57229;51.432;-2.598;2023-03-01T11:28:09;4.03;;;3.72;;
56255;SDS011;57229;51.432;-2.598;2023-03-01T11:30:41;6.15;;;4.30;;
56255;SDS011;57229;51.432;-2.598;2023-03-01T11:33:19;7.53;;;4.07;;
56255;SDS011;57229;51.432;-2.598;2023-03-01T11:42:11;6.22;;;4.22;;
56255;SDS011;57229;51.432;-2.598;2023-03-01T11:44:40;6.35;;;4.30;;
56255;SDS011;57229;51.432;-2.598;2023-03-01T11:52:59;5.25;;;4.22;;
56255;SDS011;57229;51.432;-2.598;2023-03-01T11:58:26;4.50;;;4.07;;
56255;SDS011;57229;51.432;-2.598;2023-03-01T12:01:25;4.82;;;3.83;;
56255;SDS011;57229;51.432;-2.598;2023-03-01T12:07:23;4.65;;;4.22;;
56255;SDS011;57229;51.432;-2.598;2023-03-01T12:10:01;4.53;;;4.03;;
56255;SDS011;57229;51.432;-2.598;2023-03-01T12:24:01;5.25;;;4.22;;
56255;SDS011;57229;51.432;-2.598;2023-03-01T12:29:23;4.75;;;4.28;;
56255;SDS011;57229;51.432;-2.598;2023-03-01T12:32:02;4.90;;;4.25;;
56255;SDS011;57229;51.432;-2.598;2023-03-01T12:34:36;5.88;;;4.75;;
56255;SDS011;57229;51.432;-2.598;2023-03-01T12:40:03;4.85;;;4.43;;
56255;SDS011;57229;51.432;-2.598;2023-03-01T12:51:49;6.88;;;5.18;;
56255;SDS011;57229;51.432;-2.598;2023-03-01T12:54:45;5.75;;;4.80;;
56255;SDS011;57229;51.432;-2.598;2023-03-01T13:11:14;7.97;;;5.22;;
56255;SDS011;57229;51.432;-2.598;2023-03-01T13:13:45;7.22;;;5.38;;
56255;SDS011;57229;51.432;-2.598;2023-03-01T13:19:14;6.53;;;5.70;;
56255;SDS011;57229;51.432;-2.598;2023-03-01T13:21:42;6.57;;;5.35;;
56255;SDS011;57229;51.432;-2.598;2023-03-01T13:24:31;6.10;;;5.35;;
56255;SDS011;57229;51.432;-2.598;2023-03-01T13:29:53;6.45;;;5.78;;
56255;SDS011;57229;51.432;-2.598;2023-03-01T13:34:57;6.72;;;5.38;;
56255;SDS011;57229;51.432;-2.598;2023-03-01T13:37:29;7.50;;;6.05;;
56255;SDS011;57229;51.432;-2.598;2023-03-01T13:39:57;9.20;;;5.82;;
56255;SDS011;57229;51.432;-2.598;2023-03-01T13:47:51;9.02;;;5.38;;
56255;SDS011;57229;51.432;-2.598;2023-03-01T13:50:20;8.45;;;5.68;;
56255;SDS011;57229;51.432;-2.598;2023-03-01T13:55:19;6.57;;;5.15;;
56255;SDS011;57229;51.432;-2.598;2023-03-01T13:57:50;8.40;;;5.57;;
56255;SDS011;57229;51.432;-2.598;2023-03-01T14:00:37;6.18;;;5.30;;
56255;SDS011;57229;51.432;-2.598;2023-03-01T14:05:40;8.90;;;5.75;;
56255;SDS011;57229;51.432;-2.598;2023-03-01T14:08:19;7.50;;;5.63;;
56255;SDS011;57229;51.432;-2.598;2023-03-01T14:10:58;6.40;;;5.25;;
56255;SDS011;57229;51.432;-2.598;2023-03-01T14:13:49;6.28;;;4.82;;
56255;SDS011;57229;51.432;-2.598;2023-03-01T14:21:26;6.75;;;5.38;;
56255;SDS011;57229;51.432;-2.598;2023-03-01T14:23:52;5.18;;;4.70;;
56255;SDS011;57229;51.432;-2.598;2023-03-01T14:26:21;6.65;;;4.70;;
56255;SDS011;57229;51.432;-2.598;2023-03-01T14:28:48;5.40;;;4.90;;
56255;SDS011;57229;51.432;-2.598;2023-03-01T14:34:05;5.70;;;4.80;;
56255;SDS011;57229;51.432;-2.598;2023-03-01T14:36:31;5.80;;;4.47;;
56255;SDS011;57229;51.432;-2.598;2023-03-01T14:38:58;5.22;;;4.72;;
56255;SDS011;57229;51.432;-2.598;2023-03-01T14:41:30;6.40;;;4.93;;
56255;SDS011;57229;51.432;-2.598;2023-03-01T14:44:00;6.32;;;4.75;;
56255;SDS011;57229;51.432;-2.598;2023-03-01T14:49:13;5.25;;;4.75;;
56255;SDS011;57229;51.432;-2.598;2023-03-01T14:57:18;8.52;;;5.22;;
56255;SDS011;57229;51.432;-2.598;2023-03-01T14:59:48;5.88;;;4.70;;
56255;SDS011;57229;51.432;-2.598;2023-03-01T15:02:18;6.05;;;4.80;;
56255;SDS011;57229;51.432;-2.598;2023-03-01T15:04:46;5.40;;;4.80;;
56255;SDS011;57229;51.432;-2.598;2023-03-01T15:07:19;5.75;;;4.45;;
56255;SDS011;57229;51.432;-2.598;2023-03-01T15:09:45;6.50;;;4.60;;
56255;SDS011;57229;51.432;-2.598;2023-03-01T15:14:52;6.63;;;4.30;;
56255;SDS011;57229;51.432;-2.598;2023-03-01T15:17:26;5.13;;;4.35;;
56255;SDS011;57229;51.432;-2.598;2023-03-01T15:19:57;5.22;;;4.32;;
56255;SDS011;57229;51.432;-2.598;2023-03-01T15:22:25;6.20;;;4.68;;
56255;SDS011;57229;51.432;-2.598;2023-03-01T15:24:51;4.50;;;4.10;;
56255;SDS011;57229;51.432;-2.598;2023-03-01T15:27:19;5.43;;;4.72;;
56255;SDS011;57229;51.432;-2.598;2023-03-01T15:29:51;5.07;;;4.57;;
56255;SDS011;57229;51.432;-2.598;2023-03-01T15:32:34;9.43;;;5.22;;
56255;SDS011;57229;51.432;-2.598;2023-03-01T15:40:53;5.32;;;4.60;;
56255;SDS011;57229;51.432;-2.598;2023-03-01T15:52:01;4.80;;;4.40;;
56255;SDS011;57229;51.432;-2.598;2023-03-01T15:54:28;6.28;;;4.47;;
56255;SDS011;57229;51.432;-2.598;2023-03-01T15:56:54;5.35;;;4.15;;
56255;SDS011;57229;51.432;-2.598;2023-03-01T15:59:20;4.65;;;4.15;;
56255;SDS011;57229;51.432;-2.598;2023-03-01T16:01:47;7.28;;;4.40;;
56255;SDS011;57229;51.432;-2.598;2023-03-01T16:04:14;4.72;;;4.20;;
56255;SDS011;57229;51.432;-2.598;2023-03-01T16:06:51;4.55;;;4.15;;
56255;SDS011;57229;51.432;-2.598;2023-03-01T16:09:22;5.80;;;4.32;;
56255;SDS011;57229;51.432;-2.598;2023-03-01T16:11:49;6.20;;;4.50;;
56255;SDS011;57229;51.432;-2.598;2023-03-01T16:14:16;6.65;;;4.80;;
56255;SDS011;57229;51.432;-2.598;2023-03-01T16:16:42;7.22;;;4.75;;
56255;SDS011;57229;51.432;-2.598;2023-03-01T16:19:09;5.68;;;4.75;;
56255;SDS011;57229;51.432;-2.598;2023-03-01T16:21:35;7.20;;;4.95;;
56255;SDS011;57229;51.432;-2.598;2023-03-01T16:24:01;5.82;;;5.15;;
56255;SDS011;57229;51.432;-2.598;2023-03-01T16:26:27;6.65;;;4.93;;
56255;SDS011;57229;51.432;-2.598;2023-03-01T16:28:56;9.25;;;5.10;;
56255;SDS011;57229;51.432;-2.598;2023-03-01T16:31:23;9.50;;;5.03;;
56255;SDS011;57229;51.432;-2.598;2023-03-01T16:33:52;7.97;;;5.40;;
56255;SDS011;57229;51.432;-2.598;2023-03-01T16:36:19;6.90;;;5.20;;
56255;SDS011;57229;51.432;-2.598;2023-03-01T16:38:45;6.90;;;5.65;;
56255;SDS011;57229;51.432;-2.598;2023-03-01T16:41:12;7.22;;;6.07;;
56255;SDS011;57229;51.432;-2.598;2023-03-01T16:43:39;7.07;;;5.70;;
56255;SDS011;57229;51.432;-2.598;2023-03-01T16:46:12;7.90;;;5.90;;
56255;SDS011;57229;51.432;-2.598;2023-03-01T16:48:39;6.90;;;4.97;;
56255;SDS011;57229;51.432;-2.598;2023-03-01T16:51:06;5.90;;;5.30;;
56255;SDS011;57229;51.432;-2.598;2023-03-01T16:53:32;8.02;;;5.78;;
56255;SDS011;57229;51.432;-2.598;2023-03-01T16:56:01;8.27;;;5.70;;
56255;SDS011;57229;51.432;-2.598;2023-03-01T16:58:27;7.93;;;5.30;;
56255;SDS011;57229;51.432;-2.598;2023-03-01T17:00:53;9.13;;;5.22;;
56255;SDS011;57229;51.432;-2.598;2023-03-01T17:03:21;8.95;;;5.95;;
56255;SDS011;57229;51.432;-2.598;2023-03-01T17:05:48;8.18;;;5.70;;
56255;SDS011;57229;51.432;-2.598;2023-03-01T17:08:13;9.07;;;6.05;;
56255;SDS011;57229;51.432;-2.598;2023-03-01T17:10:39;6.75;;;5.53;;
56255;SDS011;57229;51.432;-2.598;2023-03-01T17:13:07;7.15;;;5.22;;